createdAt,value
2023-02-18T00:01:20.962Z,98013.78
2023-02-18T00:03:49.338Z,98014.66
2023-02-18T00:06:20.701Z,98025.94
2023-02-18T00:08:49.845Z,98029.44
2023-02-18T00:11:19.468Z,98021.59
2023-02-18T00:13:52.480Z,98021.59
2023-02-18T00:16:21.367Z,97990.53
2023-02-18T00:18:49.878Z,98015.59
2023-02-18T00:21:19.402Z,98024.25
2023-02-18T00:23:47.571Z,97602.63
2023-02-18T00:26:17.742Z,98026.00
2023-02-18T00:28:48.534Z,98029.47
2023-02-18T00:31:22.726Z,97975.00
2023-02-18T00:33:51.410Z,98024.28
2023-02-18T00:36:22.148Z,98007.81
2023-02-18T00:38:56.187Z,98025.09
2023-02-18T00:41:25.789Z,98037.19
2023-02-18T00:43:53.958Z,98032.03
2023-02-18T00:46:22.697Z,98030.34
2023-02-18T00:48:50.940Z,97998.38
2023-02-18T00:51:20.562Z,98017.44
2023-02-18T00:53:48.685Z,98039.91
2023-02-18T00:56:16.834Z,98037.31
2023-02-18T00:58:45.093Z,98020.91
2023-02-18T01:01:13.671Z,98026.06
2023-02-18T01:03:43.319Z,98020.84
2023-02-18T01:06:13.195Z,98024.34
2023-02-18T01:08:43.263Z,98026.06
2023-02-18T01:11:13.641Z,98012.22
2023-02-18T01:13:43.133Z,98026.09
2023-02-18T01:16:12.201Z,98029.53
2023-02-18T01:18:41.283Z,98036.47
2023-02-18T01:21:10.162Z,98023.47
2023-02-18T01:23:39.608Z,98026.09
2023-02-18T01:26:10.548Z,98026.06
2023-02-18T01:28:39.110Z,97938.66
2023-02-18T01:31:08.703Z,98022.53
2023-02-18T01:33:37.250Z,98030.34
2023-02-18T01:36:07.169Z,98015.69
2023-02-18T01:38:35.750Z,98027.81
2023-02-18T01:41:04.748Z,98026.94
2023-02-18T01:43:35.158Z,98024.34
2023-02-18T01:46:16.550Z,97917.97
2023-02-18T01:48:47.778Z,98007.00
2023-02-18T01:51:20.324Z,98021.75
2023-02-18T01:53:53.867Z,98009.66
2023-02-18T01:56:27.042Z,98003.56
2023-02-18T01:59:01.375Z,98008.78
2023-02-18T02:01:32.199Z,98004.44
2023-02-18T02:04:00.979Z,98007.03
2023-02-18T02:06:29.159Z,98010.47
2023-02-18T02:09:01.129Z,98001.78
2023-02-18T02:11:52.480Z,98004.44
2023-02-18T02:14:44.422Z,97987.19
2023-02-18T02:17:18.598Z,97989.75
2023-02-18T02:20:24.715Z,98005.38
2023-02-18T02:23:27.871Z,97990.66
2023-02-18T02:26:39.559Z,97992.38
2023-02-18T02:29:42.402Z,97988.06
2023-02-18T02:32:51.914Z,97995.00
2023-02-18T02:35:25.625Z,97924.06
2023-02-18T02:38:02.278Z,97975.91
2023-02-18T02:40:39.652Z,97974.19
2023-02-18T02:43:19.512Z,97784.03
2023-02-18T02:45:56.859Z,97978.53
2023-02-18T02:48:33.639Z,97811.66
2023-02-18T02:51:10.546Z,97972.47
2023-02-18T02:53:42.457Z,97972.50
2023-02-18T02:56:15.303Z,97971.63
2023-02-18T02:58:44.493Z,97962.94
2023-02-18T03:01:28.821Z,97966.47
2023-02-18T03:04:14.854Z,97970.78
2023-02-18T03:07:03.258Z,97963.84
2023-02-18T03:09:43.081Z,97974.25
2023-02-18T03:12:18.487Z,97962.16
2023-02-18T03:14:59.821Z,97966.50
2023-02-18T03:17:31.930Z,97968.22
2023-02-18T03:20:10.585Z,97969.97
2023-02-18T03:22:45.414Z,97975.13
2023-02-18T03:25:15.768Z,97904.22
2023-02-18T03:27:48.343Z,97981.16
2023-02-18T03:30:19.674Z,97958.66
2023-02-18T03:32:50.491Z,97982.00
2023-02-18T03:35:20.492Z,97901.56
2023-02-18T03:37:54.150Z,98001.09
2023-02-18T03:40:22.571Z,97963.81
2023-02-18T03:42:50.665Z,97911.06
2023-02-18T03:45:18.881Z,97977.66
2023-02-18T03:47:47.365Z,97978.56
2023-02-18T03:50:15.687Z,97971.63
2023-02-18T03:52:43.857Z,97920.59
2023-02-18T03:55:13.409Z,97981.16
2023-02-18T03:57:41.702Z,98005.41
2023-02-18T04:00:11.726Z,97981.97
2023-02-18T04:02:40.039Z,97749.47
2023-02-18T04:05:08.731Z,97987.22
2023-02-18T04:07:37.058Z,97993.25
2023-02-18T04:10:05.959Z,97941.34
2023-02-18T04:12:35.509Z,97995.00
2023-02-18T04:15:03.655Z,97986.34
2023-02-18T04:17:31.858Z,97994.09
2023-02-18T04:19:59.959Z,97983.72
2023-02-18T04:22:28.211Z,97980.25
2023-02-18T04:24:56.314Z,97986.28
2023-02-18T04:27:25.315Z,97985.44
2023-02-18T04:29:54.915Z,97983.72
2023-02-18T04:32:22.965Z,97982.00
2023-02-18T04:34:51.073Z,97971.59
2023-02-18T04:37:19.242Z,97930.97
2023-02-18T04:39:47.356Z,97982.03
2023-02-18T04:42:15.524Z,97977.66
2023-02-18T04:44:44.731Z,97959.47
2023-02-18T04:47:16.295Z,97980.22
2023-02-18T04:49:44.472Z,97921.41
2023-02-18T04:52:12.650Z,97979.38
2023-02-18T04:54:40.761Z,97975.00
2023-02-18T04:57:08.880Z,97949.94
2023-02-18T04:59:37.057Z,97964.66
2023-02-18T05:02:05.323Z,97975.94
2023-02-18T05:04:34.852Z,97972.47
2023-02-18T05:07:02.937Z,97973.34
2023-02-18T05:09:31.230Z,97968.16
2023-02-18T05:11:59.372Z,97963.78
2023-02-18T05:14:27.651Z,97968.09
2023-02-18T05:16:55.835Z,97969.84
2023-02-18T05:19:24.033Z,97969.81
2023-02-18T05:21:53.556Z,97909.31
2023-02-18T05:24:21.693Z,97960.31
2023-02-18T05:26:49.836Z,97977.63
2023-02-18T05:29:18.105Z,97989.81
2023-02-18T05:31:46.326Z,97972.50
2023-02-18T05:34:14.592Z,97986.38
2023-02-18T05:36:42.666Z,97988.09
2023-02-18T05:39:12.205Z,97993.28
2023-02-18T05:41:40.443Z,97956.91
2023-02-18T05:44:26.120Z,97998.47
2023-02-18T05:46:54.252Z,97974.22
2023-02-18T05:49:22.883Z,97929.25
2023-02-18T05:51:51.029Z,97972.50
2023-02-18T05:54:20.723Z,97994.13
2023-02-18T05:56:49.192Z,97976.00
2023-02-18T05:59:17.418Z,97992.41
2023-02-18T06:01:45.599Z,97969.03
2023-02-18T06:04:14.272Z,98001.06
2023-02-18T06:06:42.657Z,97996.75
2023-02-18T06:09:11.330Z,98001.06
2023-02-18T06:11:40.950Z,98010.59
2023-02-18T06:14:09.301Z,97877.38
2023-02-18T06:16:37.445Z,97995.00
2023-02-18T06:19:05.603Z,98010.63
2023-02-18T06:21:33.943Z,98006.31
2023-02-18T06:24:02.040Z,98009.75
2023-02-18T06:26:30.181Z,98009.75
2023-02-18T06:28:59.714Z,98008.03
2023-02-18T06:31:27.978Z,98014.09
2023-02-18T06:33:56.230Z,98014.94
2023-02-18T06:36:24.356Z,97986.38
2023-02-18T06:38:54.139Z,98000.25
2023-02-18T06:41:22.261Z,98000.22
2023-02-18T06:43:50.462Z,97999.38
2023-02-18T06:46:20.032Z,98026.16
2023-02-18T06:48:48.147Z,98023.59
2023-02-18T06:51:17.222Z,97879.97
2023-02-18T06:53:45.462Z,98020.09
2023-02-18T06:56:13.577Z,98023.53
2023-02-18T06:58:41.663Z,98027.03
2023-02-18T07:01:10.104Z,98026.16
2023-02-18T07:03:39.745Z,98014.91
2023-02-18T07:06:08.728Z,98027.88
2023-02-18T07:08:37.743Z,98034.78
2023-02-18T07:11:06.418Z,98000.16
2023-02-18T07:13:34.527Z,98023.50
2023-02-18T07:16:02.655Z,98023.47
2023-02-18T07:18:30.794Z,98002.75
2023-02-18T07:21:00.387Z,98019.97
2023-02-18T07:23:28.497Z,97989.63
2023-02-18T07:26:05.212Z,98021.66
2023-02-18T07:28:33.605Z,98033.78
2023-02-18T07:31:01.751Z,98010.38
2023-02-18T07:33:30.145Z,98038.88
2023-02-18T07:35:59.282Z,98047.56
2023-02-18T07:38:29.444Z,97961.91
2023-02-18T07:40:58.407Z,98059.66
2023-02-18T07:43:26.803Z,98045.78
2023-02-18T07:45:55.470Z,98049.22
2023-02-18T07:48:23.687Z,98049.22
2023-02-18T07:50:51.931Z,98055.22
2023-02-18T07:53:20.196Z,97998.94
2023-02-18T07:55:52.780Z,98012.72
2023-02-18T07:58:23.268Z,98036.03
2023-02-18T08:00:52.171Z,98045.41
2023-02-18T08:03:21.349Z,98058.19
2023-02-18T08:05:50.382Z,97629.84
2023-02-18T08:08:22.007Z,98051.31
2023-02-18T08:10:52.619Z,98061.66
2023-02-18T08:13:22.591Z,98032.13
2023-02-18T08:15:51.002Z,98066.72
2023-02-18T08:18:21.879Z,98059.78
2023-02-18T08:20:51.912Z,98070.09
2023-02-18T08:23:21.886Z,98062.22
2023-02-18T08:25:52.824Z,98060.44
2023-02-18T08:28:22.340Z,98072.50
2023-02-18T08:30:52.113Z,98069.84
2023-02-18T08:33:20.957Z,98069.78
2023-02-18T08:35:50.387Z,98050.63
2023-02-18T08:38:18.477Z,98061.84
2023-02-18T08:40:47.047Z,98059.25
2023-02-18T08:43:17.579Z,98063.53
2023-02-18T08:45:46.332Z,98040.97
2023-02-18T08:48:20.341Z,98063.44
2023-02-18T08:50:49.007Z,98059.84
2023-02-18T08:53:17.713Z,98063.19
2023-02-18T08:55:46.367Z,98057.00
2023-02-18T08:58:17.404Z,98061.19
2023-02-18T09:00:46.113Z,98060.22
2023-02-18T09:03:15.399Z,98057.44
2023-02-18T09:05:44.144Z,98023.56
2023-02-18T09:08:12.426Z,98040.81
2023-02-18T09:10:40.690Z,97994.06
2023-02-18T09:13:08.993Z,98017.16
2023-02-18T09:15:38.922Z,98051.38
2023-02-18T09:18:07.339Z,98049.13
2023-02-18T09:20:35.612Z,98043.50
2023-02-18T09:23:04.307Z,98041.25
2023-02-18T09:25:32.663Z,98040.53
2023-02-18T09:28:00.870Z,98024.41
2023-02-18T09:30:29.037Z,98038.69
2023-02-18T09:32:58.551Z,98039.88
2023-02-18T09:35:26.746Z,98039.44
2023-02-18T09:37:54.938Z,98025.19
2023-02-18T09:40:27.843Z,98038.47
2023-02-18T09:42:57.938Z,97992.25
2023-02-18T09:45:26.992Z,98043.44
2023-02-18T09:47:55.731Z,98035.03
2023-02-18T09:50:28.427Z,98014.00
2023-02-18T09:52:59.937Z,98014.19
2023-02-18T09:55:31.289Z,98020.53
2023-02-18T09:58:03.411Z,98027.06
2023-02-18T10:00:37.570Z,98019.69
2023-02-18T10:03:09.243Z,98019.94
2023-02-18T10:05:42.494Z,97971.06
2023-02-18T10:08:21.947Z,98000.50
2023-02-18T10:10:50.302Z,97987.19
2023-02-18T10:13:20.927Z,97998.09
2023-02-18T10:15:49.837Z,97974.88
2023-02-18T10:21:07.685Z,97991.59
2023-02-18T10:23:38.587Z,97938.28
2023-02-18T10:26:11.471Z,97989.84
2023-02-18T10:28:39.689Z,97977.03
2023-02-18T10:31:11.504Z,97969.50
2023-02-18T10:33:48.554Z,97951.75
2023-02-18T10:36:26.136Z,97964.22
2023-02-18T10:39:07.879Z,97964.53
2023-02-18T10:41:41.698Z,97866.69
2023-02-18T10:44:17.636Z,97924.78
2023-02-18T10:46:55.924Z,97945.72
2023-02-18T10:49:45.331Z,97922.41
2023-02-18T10:52:19.160Z,97895.41
2023-02-18T10:54:53.692Z,97860.50
2023-02-18T10:57:23.899Z,97921.59
2023-02-18T11:00:01.524Z,97932.41
2023-02-18T11:02:33.004Z,97836.34
2023-02-18T11:05:08.922Z,97788.94
2023-02-18T11:07:40.780Z,97818.91
2023-02-18T11:10:18.095Z,97889.50
2023-02-18T11:12:48.711Z,97890.25
2023-02-18T11:15:23.776Z,97901.72
2023-02-18T11:17:54.550Z,97884.28
2023-02-18T11:20:30.410Z,97712.19
2023-02-18T11:23:14.705Z,97880.84
2023-02-18T11:25:53.787Z,97876.31
2023-02-18T11:28:32.200Z,97864.66
2023-02-18T11:31:03.758Z,97833.22
2023-02-18T11:33:36.007Z,97845.41
2023-02-18T11:36:20.076Z,97835.75
2023-02-18T11:38:55.695Z,97716.41
2023-02-18T11:41:33.264Z,97812.00
2023-02-18T11:44:02.913Z,97804.06
2023-02-18T11:46:31.220Z,97822.53
2023-02-18T11:49:21.541Z,97836.00
2023-02-18T11:51:51.568Z,97796.59
2023-02-18T11:54:27.436Z,97774.97
2023-02-18T11:56:59.059Z,97790.16
2023-02-18T11:59:28.190Z,97784.69
2023-02-18T12:02:02.713Z,97782.81
2023-02-18T12:04:37.991Z,97724.47
2023-02-18T12:07:17.734Z,97765.38
2023-02-18T12:09:50.844Z,97772.25
2023-02-18T12:12:26.212Z,97762.56
2023-02-18T12:14:56.875Z,97755.97
2023-02-18T12:17:42.661Z,97753.34
2023-02-18T12:20:46.823Z,97747.06
2023-02-18T12:23:23.987Z,97733.28
2023-02-18T12:26:03.908Z,97732.03
2023-02-18T12:28:48.200Z,97603.56
2023-02-18T12:31:35.639Z,97722.00
2023-02-18T12:34:24.906Z,97680.25
2023-02-18T12:37:06.626Z,97705.25
2023-02-18T12:39:49.860Z,97694.03
2023-02-18T12:42:37.653Z,97701.19
2023-02-18T12:45:29.413Z,97694.53
2023-02-18T12:48:21.296Z,97690.63
2023-02-18T12:51:12.514Z,97687.78
2023-02-18T12:54:07.109Z,97687.63
2023-02-18T12:56:58.512Z,97676.19
2023-02-18T13:00:00.330Z,97674.38
2023-02-18T13:02:58.377Z,97663.91
2023-02-18T13:05:33.310Z,97663.25
2023-02-18T13:08:18.900Z,97650.81
2023-02-18T13:10:59.973Z,97663.13
2023-02-18T13:13:33.329Z,97656.91
2023-02-18T13:16:06.494Z,97624.06
2023-02-18T13:18:37.968Z,97665.16
2023-02-18T13:21:08.938Z,97657.53
2023-02-18T13:23:41.240Z,97648.13
2023-02-18T13:26:14.861Z,97633.16
2023-02-18T13:28:51.448Z,97632.38
2023-02-18T13:31:33.581Z,97583.22
2023-02-18T13:34:07.621Z,97617.44
2023-02-18T13:36:47.414Z,97612.38
2023-02-18T13:39:20.659Z,97610.13
2023-02-18T13:41:51.584Z,97599.38
2023-02-18T13:44:41.957Z,97602.88
2023-02-18T13:47:11.925Z,97597.84
2023-02-18T13:49:42.920Z,97582.66
2023-02-18T13:52:20.652Z,97597.41
2023-02-18T13:54:51.987Z,97594.91
2023-02-18T13:57:23.153Z,97528.69
2023-02-18T13:59:57.969Z,97508.38
2023-02-18T14:02:36.252Z,97587.25
2023-02-18T14:05:22.354Z,97567.41
2023-02-18T14:07:52.494Z,97569.41
2023-02-18T14:10:34.134Z,97472.47
2023-02-18T14:13:20.687Z,97498.00
2023-02-18T14:15:56.711Z,97541.75
2023-02-18T14:18:55.800Z,97438.06
2023-02-18T14:21:37.985Z,97537.47
2023-02-18T14:24:08.403Z,97484.94
2023-02-18T14:26:45.643Z,97469.38
2023-02-18T14:29:19.351Z,97494.28
2023-02-18T14:31:53.717Z,97498.63
2023-02-18T14:35:08.299Z,97527.66
2023-02-18T14:38:12.084Z,97462.03
2023-02-18T14:40:59.911Z,97512.75
2023-02-18T14:43:48.633Z,97526.50
2023-02-18T14:46:30.290Z,97406.09
2023-02-18T14:49:30.116Z,97514.75
2023-02-18T14:52:00.946Z,97543.06
2023-02-18T14:54:31.291Z,97505.25
2023-02-18T14:57:02.902Z,97410.56
2023-02-18T14:59:35.993Z,97383.88
2023-02-18T15:02:04.107Z,97493.66
2023-02-18T15:04:32.314Z,97503.97
2023-02-18T15:07:04.775Z,97504.94
2023-02-18T15:09:33.192Z,97517.53
2023-02-18T15:12:04.657Z,97489.00
2023-02-18T15:14:37.363Z,97518.19
2023-02-18T15:17:07.119Z,97462.53
2023-02-18T15:19:41.083Z,97504.00
2023-02-18T15:22:18.464Z,97512.53
2023-02-18T15:24:47.122Z,97509.47
2023-02-18T15:27:18.454Z,97504.34
2023-02-18T15:29:50.820Z,97509.38
2023-02-18T15:32:21.182Z,97514.34
2023-02-18T15:34:52.871Z,97514.91
2023-02-18T15:37:22.503Z,97508.09
2023-02-18T15:39:50.928Z,97479.75
2023-02-18T15:42:27.091Z,97386.56
2023-02-18T15:44:58.484Z,97499.09
2023-02-18T15:47:27.210Z,97495.59
2023-02-18T15:49:58.170Z,97502.22
2023-02-18T15:52:30.829Z,97466.59
2023-02-18T15:55:04.310Z,97512.16
2023-02-18T15:57:34.139Z,97504.22
2023-02-18T16:00:06.639Z,97499.91
2023-02-18T16:02:35.388Z,97506.84
2023-02-18T16:05:05.540Z,97500.53
2023-02-18T16:07:50.531Z,97480.88
2023-02-18T16:10:22.254Z,97494.16
2023-02-18T16:12:54.201Z,97485.28
2023-02-18T16:15:27.380Z,97494.16
2023-02-18T16:17:56.119Z,97460.72
2023-02-18T16:20:32.009Z,97492.19
2023-02-18T16:23:05.669Z,97477.88
2023-02-18T16:25:43.059Z,97468.88
2023-02-18T16:28:16.518Z,97309.09
2023-02-18T16:30:46.568Z,97464.84
2023-02-18T16:33:15.030Z,97491.72
2023-02-18T16:35:49.969Z,97506.09
2023-02-18T16:38:22.395Z,97472.28
2023-02-18T16:40:51.096Z,97480.16
2023-02-18T16:43:21.547Z,97478.88
2023-02-18T16:45:51.944Z,97468.34
2023-02-18T16:48:25.550Z,97494.38
2023-02-18T16:50:54.671Z,97463.19
2023-02-18T16:53:24.971Z,97413.09
2023-02-18T16:55:53.283Z,97486.25
2023-02-18T16:58:21.459Z,97485.75
2023-02-18T17:00:52.189Z,97477.94
2023-02-18T17:03:22.110Z,97493.44
2023-02-18T17:05:50.414Z,97495.59
2023-02-18T17:08:23.361Z,97507.06
2023-02-18T17:10:54.537Z,97494.88
2023-02-18T17:13:24.690Z,97499.41
2023-02-18T17:15:54.789Z,97519.31
2023-02-18T17:18:24.060Z,97506.31
2023-02-18T17:20:53.741Z,97502.88
2023-02-18T17:23:24.134Z,97508.50
2023-02-18T17:25:54.651Z,97517.56
2023-02-18T17:28:23.283Z,97519.47
2023-02-18T17:30:56.617Z,97506.72
2023-02-18T17:33:26.336Z,97500.59
2023-02-18T17:35:55.126Z,97471.50
2023-02-18T17:38:23.810Z,97527.47
2023-02-18T17:40:53.494Z,97527.56
2023-02-18T17:43:23.923Z,97523.44
2023-02-18T17:45:54.314Z,97525.13
2023-02-18T17:48:23.564Z,97540.75
2023-02-18T17:50:52.616Z,97477.97
2023-02-18T17:53:21.292Z,97558.09
2023-02-18T17:55:50.031Z,97529.75
2023-02-18T17:58:19.725Z,97573.25
2023-02-18T18:00:50.581Z,97509.59
2023-02-18T18:03:19.447Z,97570.94
2023-02-18T18:05:49.466Z,97557.19
2023-02-18T18:08:17.908Z,97566.66
2023-02-18T18:10:50.315Z,97565.06
2023-02-18T18:13:23.741Z,97562.59
2023-02-18T18:15:52.525Z,97477.91
2023-02-18T18:18:20.993Z,97558.69
2023-02-18T18:20:52.026Z,97558.66
2023-02-18T18:23:21.800Z,97555.16
2023-02-18T18:25:52.236Z,97549.03
2023-02-18T18:28:21.827Z,97529.09
2023-02-18T18:30:52.424Z,97560.31
2023-02-18T18:33:22.989Z,97554.69
2023-02-18T18:35:52.958Z,97558.38
2023-02-18T18:38:22.154Z,97515.94
2023-02-18T18:40:51.774Z,97555.25
2023-02-18T18:43:23.953Z,97574.88
2023-02-18T18:45:52.928Z,97572.91
2023-02-18T18:48:22.200Z,97567.06
2023-02-18T18:50:50.963Z,97532.75
2023-02-18T18:53:20.959Z,97559.34
2023-02-18T18:55:49.721Z,97559.53
2023-02-18T18:58:21.070Z,97553.66
2023-02-18T19:00:52.675Z,97564.91
2023-02-18T19:03:22.222Z,97571.16
2023-02-18T19:05:51.343Z,97575.41
2023-02-18T19:08:20.717Z,97576.44
2023-02-18T19:10:50.148Z,97598.94
2023-02-18T19:13:20.203Z,97607.72
2023-02-18T19:15:51.373Z,97606.88
2023-02-18T19:18:21.013Z,97612.00
2023-02-18T19:20:49.577Z,97454.31
2023-02-18T19:23:17.665Z,97598.06
2023-02-18T19:25:45.925Z,97524.22
2023-02-18T19:28:15.033Z,97614.56
2023-02-18T19:30:43.624Z,97611.97
2023-02-18T19:33:15.159Z,97625.06
2023-02-18T19:35:44.024Z,97595.81
2023-02-18T19:38:13.872Z,97616.41
2023-02-18T19:40:42.368Z,97585.97
2023-02-18T19:43:11.945Z,97592.22
2023-02-18T19:45:43.901Z,97610.44
2023-02-18T19:48:14.070Z,97552.09
2023-02-18T19:50:43.619Z,97599.06
2023-02-18T19:53:12.611Z,97578.56
2023-02-18T19:55:40.786Z,97605.16
2023-02-18T19:58:09.127Z,97607.09
2023-02-18T20:00:37.289Z,97608.97
2023-02-18T20:03:05.590Z,97627.28
2023-02-18T20:05:38.602Z,97645.53
2023-02-18T20:08:06.693Z,97650.72
2023-02-18T20:10:34.935Z,97653.34
2023-02-18T20:13:04.638Z,97626.84
2023-02-18T20:15:33.037Z,97669.94
2023-02-18T20:18:01.324Z,97668.16
2023-02-18T20:20:29.583Z,97674.09
2023-02-18T20:22:59.052Z,97663.66
2023-02-18T20:25:28.377Z,97657.69
2023-02-18T20:28:01.236Z,97667.31
2023-02-18T20:30:30.220Z,97677.84
2023-02-18T20:32:58.509Z,97676.25
2023-02-18T20:35:27.049Z,97634.88
2023-02-18T20:37:55.227Z,97685.78
2023-02-18T20:40:24.770Z,97666.88
2023-02-18T20:42:52.900Z,97685.84
2023-02-18T20:45:21.093Z,97641.72
2023-02-18T20:47:49.277Z,97610.75
2023-02-18T20:50:17.545Z,97680.66
2023-02-18T20:52:45.903Z,97680.03
2023-02-18T20:55:14.482Z,97680.06
2023-02-18T20:57:44.047Z,97686.13
2023-02-18T21:00:13.378Z,97671.41
2023-02-18T21:02:41.573Z,97623.13
2023-02-18T21:05:09.790Z,97681.72
2023-02-18T21:07:37.968Z,97664.38
2023-02-18T21:10:06.706Z,97644.56
2023-02-18T21:12:34.851Z,97671.44
2023-02-18T21:15:04.634Z,97663.78
2023-02-18T21:17:32.801Z,97688.81
2023-02-18T21:20:01.463Z,97688.69
2023-02-18T21:22:29.584Z,97668.88
2023-02-18T21:24:59.214Z,97600.88
2023-02-18T21:27:27.411Z,97701.91
2023-02-18T21:29:55.543Z,97583.66
2023-02-18T21:32:25.140Z,97704.38
2023-02-18T21:34:53.594Z,97687.22
2023-02-18T21:37:21.769Z,97705.38
2023-02-18T21:39:49.816Z,97700.06
2023-02-18T21:42:17.941Z,97694.19
2023-02-18T21:44:46.072Z,97703.84
2023-02-18T21:47:14.286Z,97333.28
2023-02-18T21:49:43.808Z,97706.53
2023-02-18T21:52:11.901Z,97690.91
2023-02-18T21:54:41.305Z,97697.78
2023-02-18T21:57:11.955Z,97698.69
2023-02-18T21:59:41.153Z,97621.97
2023-02-18T22:02:15.590Z,97702.09
2023-02-18T22:04:45.166Z,97690.03
2023-02-18T22:07:13.569Z,97708.94
2023-02-18T22:09:41.813Z,97713.31
2023-02-18T22:12:11.875Z,97676.41
2023-02-18T22:14:40.527Z,97590.25
2023-02-18T22:17:08.753Z,97711.78
2023-02-18T22:19:37.130Z,97714.31
2023-02-18T22:22:06.937Z,97733.38
2023-02-18T22:24:35.383Z,97720.44
2023-02-18T22:27:03.841Z,97723.06
2023-02-18T22:29:32.759Z,97699.72
2023-02-18T22:32:01.233Z,97691.84
2023-02-18T22:34:29.522Z,97704.88
2023-02-18T22:36:57.737Z,97722.13
2023-02-18T22:39:27.670Z,97683.34
2023-02-18T22:41:55.903Z,97701.47
2023-02-18T22:44:26.288Z,97726.53
2023-02-18T22:46:56.246Z,97721.38
2023-02-18T22:49:24.932Z,97729.09
2023-02-18T22:51:54.942Z,97706.63
2023-02-18T22:54:23.381Z,97729.00
2023-02-18T22:56:54.509Z,97722.09
2023-02-18T22:59:22.658Z,97729.91
2023-02-18T23:01:53.093Z,97734.19
2023-02-18T23:04:22.316Z,97738.59
2023-02-18T23:06:51.365Z,97737.84
2023-02-18T23:09:22.333Z,97737.91
2023-02-18T23:11:53.669Z,97566.28
2023-02-18T23:14:22.701Z,97751.03
2023-02-18T23:17:10.568Z,97764.88
2023-02-18T23:19:39.277Z,97740.66
2023-02-18T23:22:07.525Z,97760.53
2023-02-18T23:24:36.342Z,97707.00
2023-02-18T23:27:06.861Z,97758.81
2023-02-18T23:29:35.462Z,97768.31
2023-02-18T23:32:03.919Z,97730.31
2023-02-18T23:34:32.563Z,97764.84
2023-02-18T23:37:00.733Z,97764.81
2023-02-18T23:39:29.640Z,97769.13
2023-02-18T23:41:58.502Z,97767.38
2023-02-18T23:44:28.987Z,97763.00
2023-02-18T23:46:57.314Z,97762.16
2023-02-18T23:49:27.274Z,97756.97
2023-02-18T23:51:57.288Z,97752.69
2023-02-18T23:54:25.732Z,97743.19
2023-02-18T23:56:53.867Z,97749.25
2023-02-18T23:59:22.086Z,97751.78
